Station: Strathalbyn

  Atmospheric Gas Attenuation - ITU Rec 676-11   --------------- db/100km ---------------
Date Time Temp RH % AH g/m3 Dew Point Wind Direction Speed kph Gust kph Barometer mB Rainfall Since 9am 24GHz 47GHz 76GHz 122GHz 134GHz 241GHz
15 01:10 9.2 98 8.75 8.9 15 17 1017.2 1 20.1 27.7 43.0 112.9 106.9 367.6
15 01:00 9.3 98 8.81 9 17 20 1017.1 1 20.3 27.8 43.2 113.5 107.6 370.1
15 00:50 9.4 98 8.87 9.1 17 17 1017.2 1 20.4 27.8 43.4 114.0 108.3 372.7
15 00:40 9.4 98 8.87 9.1 19 20 1017.3 1 20.4 27.8 43.4 114.1 108.4 372.7
15 00:30 9.5 98 8.92 9.2 17 20 1017.3 1 20.5 27.9 43.6 114.5 108.9 374.7
15 00:20 9.6 98 8.98 9.3 19 20 1017.3 0.8 20.6 28.0 43.8 115.0 109.6 377.2
15 00:10 9.7 98 9.04 9.4 17 19 1017.2 0.8 20.7 28.0 44.0 115.6 110.3 379.7
15 00:00 9.7 98 9.04 9.4 15 15 1017.1 0.8 20.7 28.0 44.0 115.5 110.3 379.6
14 23:50 9.8 98 9.09 9.5 15 17 1017 0.8 20.8 28.1 44.1 116.0 110.9 381.6
14 23:40 9.9 98 9.15 9.6 15 15 1017 0.6 21.0 28.2 44.4 116.5 111.6 384.1
14 23:30 9.9 98 9.15 9.6 13 17 1017.1 0.6 21.0 28.2 44.4 116.5 111.6 384.1
14 23:20 10 98 9.21 9.7 13 15 1017 0.6 21.1 28.2 44.6 117.1 112.3 386.6
14 23:10 10 98 9.21 9.7 9 9 1017 0.6 21.1 28.2 44.6 117.1 112.3 386.6
14 23:00 9.9 98 9.15 9.6 13 15 1017 0.6 21.0 28.2 44.4 116.5 111.6 384.1
14 22:50 10 98 9.21 9.7 13 13 1016.9 0.6 21.1 28.2 44.6 117.0 112.3 386.6
14 22:40 10 98 9.21 9.7 13 13 1016.8 0.6 21.1 28.2 44.5 117.0 112.3 386.5
14 22:30 10.1 98 9.27 9.8 11 13 1016.7 0.6 21.2 28.3 44.7 117.6 113.0 389.0
14 22:20 10.2 98 9.33 9.9 13 15 1016.6 0.6 21.3 28.4 44.9 118.1 113.7 391.4
14 22:10 10.2 98 9.33 9.9 15 17 1016.6 0.6 21.3 28.4 44.9 118.1 113.7 391.4
14 22:00 10.2 98 9.33 9.9 15 19 1016.6 0.6 21.3 28.4 44.9 118.1 113.7 391.4
14 21:50 10.3 98 9.39 10 15 15 1016.7 0.6 21.5 28.4 45.2 118.6 114.4 394.0
14 21:40 10.3 98 9.39 10 15 17 1016.6 0.6 21.5 28.4 45.1 118.6 114.4 393.9
14 21:30 10.4 98 9.45 10.1 11 15 1016.5 0.6 21.6 28.5 45.3 119.2 115.1 396.4
14 21:20 10.4 98 9.45 10.1 13 13 1016.5 0.6 21.6 28.5 45.3 119.2 115.1 396.4
14 21:10 10.4 98 9.45 10.1 9 11 1016.4 0.6 21.6 28.5 45.3 119.2 115.1 396.4
14 21:00 10.4 98 9.45 10.1 11 13 1016.4 0.6 21.6 28.5 45.3 119.2 115.1 396.4
14 20:50 10.5 98 9.51 10.2 13 17 1016.4 0.6 21.7 28.6 45.5 119.7 115.8 398.8
14 20:40 10.6 98 9.57 10.3 15 17 1016.3 0.6 21.8 28.6 45.7 120.2 116.5 401.3
14 20:30 10.7 98 9.63 10.4 15 15 1016.3 0.6 22.0 28.7 45.9 120.8 117.2 403.8
14 20:20 10.9 98 9.75 10.6 11 13 1016.2 0.6 22.2 28.8 46.3 121.8 118.6 408.7
14 20:10 10.8 98 9.69 10.5 13 17 1016.2 0.6 22.1 28.8 46.1 121.3 117.9 406.2
14 20:00 10.8 98 9.69 10.5 13 17 1016.2 0.6 22.1 28.8 46.1 121.3 117.9 406.2
14 19:50 10.9 97 9.65 10.4 15 17 1015.9 0.6 22.0 28.7 45.9 120.6 117.1 403.6
14 19:40 11 97 9.71 10.5 19 20 1015.8 0.4 22.1 28.7 46.1 121.2 117.8 406.1
14 19:30 11.3 97 9.9 10.8 15 20 1015.8 0.4 22.5 29.0 46.7 122.9 120.1 414.0
14 19:20 11.4 97 9.96 10.9 15 15 1015.6 0.4 22.6 29.0 46.9 123.4 120.8 416.4
14 19:10 11.4 97 9.96 10.9 13 15 1015.5 0.4 22.6 29.0 46.9 123.4 120.8 416.4
14 19:00 11.7 96 10.04 11.1 11 13 1015.3 0.4 22.8 29.1 47.1 123.8 121.4 418.7
14 18:50 12 96 10.23 11.4 15 15 1015.1 0.4 23.2 29.3 47.7 125.6 123.6 426.5
14 18:40 12.2 94 10.14 11.3 15 17 1015 0.4 23.0 29.1 47.2 124.2 122.0 420.9
14 18:30 12.4 93 10.16 11.3 17 22 1014.9 0.4 23.0 29.0 47.2 124.1 122.0 420.7
14 18:20 12.7 93 10.35 11.6 15 17 1014.8 0.4 23.4 29.2 47.8 125.8 124.2 428.5
14 18:10 12.7 93 10.35 11.6 13 17 1014.7 0.4 23.4 29.2 47.8 125.8 124.2 428.5
14 18:00 12.8 93 10.42 11.7 15 20 1014.5 0.4 23.5 29.3 48.0 126.4 125.0 431.3
14 17:50 12.9 92 10.37 11.6 17 19 1014.1 0.4 23.4 29.2 47.7 125.6 124.1 428.2
14 17:40 13.2 92 10.56 11.9 11 13 1013.9 0.4 23.8 29.4 48.4 127.3 126.3 435.9
14 17:30 13.3 91 10.51 11.9 13 15 1013.8 0.4 23.7 29.3 48.1 126.5 125.4 432.8
14 17:20 13.4 91 10.58 12 13 15 1013.7 0.4 23.9 29.4 48.3 127.2 126.2 435.7
14 17:10 13.2 89 10.22 11.4 9 11 1013.6 0.4 23.1 28.8 46.9 123.3 121.4 418.9
14 17:00 13.4 88 10.23 11.5 13 15 1013.4 0.4 23.1 28.7 46.8 123.1 121.2 418.3
14 16:50 13.7 87 10.3 11.6 13 13 1013.2 0.4 23.2 28.8 46.9 123.4 121.7 420.0
14 16:40 14 85 10.25 11.5 11 13 1013.2 0.4 23.1 28.6 46.5 122.4 120.5 415.9
14 16:30 14.2 85 10.38 11.7 13 17 1013.1 0.4 23.4 28.7 46.9 123.5 122.0 421.2
14 16:20 14.5 82 10.2 11.5 11 15 1012.9 0.4 23.0 28.3 46.0 121.0 119.0 410.7
14 16:10 14.8 81 10.26 11.6 15 17 1012.7 0.4 23.1 28.3 46.1 121.2 119.4 412.0
14 16:00 15.1 78 10.06 11.3 11 17 1012.6 0.4 22.6 27.9 45.0 118.5 116.2 400.8
14 15:50 15.2 73 9.48 10.4 9 11 1012.6 0.4 21.4 26.9 42.6 111.9 108.2 372.9
14 15:40 14.9 75 9.56 10.5 13 13 1012.5 0.4 21.6 27.1 43.1 113.2 109.7 378.0
14 15:30 15.1 73 9.42 10.3 9 13 1012.3 0.4 21.3 26.8 42.4 111.4 107.5 370.5
14 15:20 15.1 72 9.29 10.1 11 11 1012.3 0.4 21.0 26.6 41.9 110.0 105.8 364.4
14 15:10 15.4 73 9.59 10.6 9 11 1012.3 0.4 21.6 27.0 42.9 112.8 109.3 377.0
14 15:00 15.4 71 9.33 10.2 9 15 1012 0.4 21.1 26.6 41.9 110.0 105.8 364.8
14 14:50 15.1 75 9.68 10.7 9 11 1012.1 0.4 21.8 27.2 43.4 114.2 111.0 382.6
14 14:40 14.4 78 9.64 10.6 9 11 1012.2 0.4 21.8 27.4 43.7 114.8 111.4 384.2
14 14:30 14.3 78 9.58 10.5 13 13 1012.3 0.4 21.7 27.3 43.5 114.3 110.8 381.8
14 14:20 14.4 77 9.52 10.4 17 20 1012.3 0.4 21.5 27.2 43.2 113.5 109.8 378.5
14 14:10 14.9 73 9.3 10.1 22 24 1012.3 0.4 21.0 26.7 42.0 110.4 106.2 365.8
14 14:00 17.3 72 10.61 12.2 17 24 1012.2 0.4 23.7 28.1 46.0 121.1 120.2 415.2
14 13:50 17.2 74 10.84 12.5 11 15 1012 0.4 24.2 28.5 47.0 123.8 123.5 426.6
14 13:40 16.9 70 10.07 11.4 15 17 1011.9 0.4 22.6 27.3 44.0 115.8 113.5 391.9
14 13:30 17.1 73 10.63 12.2 9 15 1012.1 0.4 23.8 28.2 46.2 121.6 120.8 417.2
14 13:20 17.3 72 10.61 12.2 11 13 1012 0.4 23.7 28.1 46.0 121.1 120.2 415.2
14 13:10 16.9 76 10.93 12.6 9 11 1012 0.4 24.4 28.7 47.6 125.2 125.2 432.6
14 13:00 17 81 11.72 13.7 13 19 1012.1 0.4 26.1 30.1 50.9 134.0 136.0 470.3
14 12:50 16.6 83 11.72 13.7 19 20 1012.4 0.4 26.1 30.2 51.1 134.7 136.7 472.9
14 12:40 15.9 85 11.51 13.4 13 17 1012.5 0.4 25.7 30.1 50.7 133.5 135.0 466.8
14 12:30 15.5 87 11.5 13.3 7 11 1012.6 0.4 25.7 30.2 50.9 134.1 135.6 468.8
14 12:20 15.4 89 11.69 13.6 7 9 1012.6 0.4 26.1 30.6 51.8 136.5 138.5 478.9
14 12:10 14.9 89 11.34 13.1 11 13 1012.9 0.4 25.4 30.2 50.6 133.4 134.4 464.5
14 12:00 15.1 90 11.61 13.5 7 7 1013 0.4 26.0 30.6 51.7 136.2 137.9 476.9
14 11:50 15.1 87 11.22 13 9 11 1013 0.2 25.1 29.9 50.0 131.6 132.4 457.4
14 11:40 15.3 87 11.36 13.1 7 9 1013 0 25.4 30.1 50.5 132.9 134.0 463.2
14 11:30 15.1 87 11.22 13 11 11 1013.1 0 25.1 29.9 50.0 131.6 132.4 457.4
14 11:20 15 86 11.03 12.7 6 7 1013.3 0 24.7 29.6 49.2 129.6 129.9 448.7
14 11:10 15 86 11.03 12.7 0 0 1013.4 0 24.7 29.6 49.2 129.7 129.9 448.7
14 11:00 14.8 87 11.02 12.7 0 0 1013.6 0 24.7 29.7 49.3 129.9 130.1 449.5
14 10:50 14.7 87 10.95 12.6 6 6 1013.6 0 24.6 29.6 49.1 129.3 129.3 446.6
14 10:40 14.5 90 11.19 12.9 7 7 1013.7 0 25.1 30.1 50.3 132.4 133.1 459.7
14 10:30 14.3 92 11.3 13 2 6 1013.9 0 25.4 30.3 50.9 134.1 135.0 466.5
14 10:20 14 93 11.22 12.9 6 6 1013.8 0 25.2 30.3 50.7 133.6 134.4 464.3
14 10:10 13.7 95 11.25 12.9 7 9 1013.9 0 25.3 30.5 51.1 134.5 135.4 467.6
14 10:00 13.4 95 11.04 12.6 7 9 1014.1 0 24.8 30.2 50.4 132.6 132.9 458.9
14 09:50 12.8 97 10.87 12.3 7 7 1013.9 0 24.5 30.1 50.0 131.6 131.4 453.8
14 09:40 12.1 96 10.3 11.5 0 0 1013.9 0 23.3 29.3 47.9 126.1 124.4 429.1
14 09:30 11.9 97 10.27 11.4 0 0 1013.8 0 23.3 29.3 47.9 126.0 124.3 428.6
14 09:20 11.6 97 10.08 11.1 0 0 1013.7 0 22.9 29.1 47.2 124.3 122.0 420.7
14 09:10 11.4 97 9.96 10.9 0 0 1013.7 0 22.6 29.0 46.8 123.2 120.6 415.8
14 09:00 11.2 97 9.83 10.7 0 0 1013.8 0 22.4 28.8 46.4 122.0 119.1 410.4
14 08:50 10.9 97 9.65 10.4 9 11 1013.6 14.8 22.0 28.6 45.8 120.4 116.9 402.9
14 08:40 10.9 97 9.65 10.4 0 0 1013.7 14.8 22.0 28.6 45.8 120.4 116.9 402.9

Last Refresh: 15-Jun-2024 01:23:56

Bureau of Meteorology